Main page
METAR-TAF:

Airports :

Dortmund, Germany

Dortmund Airport

latitude: 51-31N, longitude: 007-37E, elevation: 127 m

Current weather observation

The report was made 4 hours and 7 minutes ago, at 19:50 UTC
Wind 4 kt from the Northeast
Temperature 16°C
Humidity 68%
Pressure 1016 hPa
Visibility 10 km or more
no clouds below 1500 m and no cumulonimbus

METAR: EDLW 271950Z 05004KT CAVOK 16/10 Q1016

Time: 01:57 (23:57 UTC)

Forecast

The report was made 6 hours and 57 minutes ago, at 17:00 UTC
Forecast valid from 27 at 18 UTC to 28 at 18 UTC
Wind 5 kt from the East/Northeast
Visibility 10 km or more
no clouds below 1500 m and no cumulonimbus
Temporary
from 28 at 03 UTC to 28 at 06 UTC
Visibility: 3000 m
mist
Temporary
from 28 at 12 UTC to 28 at 18 UTC
Broken clouds at a height of 4000 ft, Cumulonimbus.
thunderstorm, rain

TAF: EDLW 271700Z 2718/2818 07005KT CAVOK TEMPO 2803/2806 3000 BR TEMPO 2812/2818 TSRA BKN040CB

METAR-TAF

Weather observations and forecasts of more than 4000 airports (METAR and TAF reports).

The available stations are represented by yellow and red dots on the map.

Hover mouse over dot to see the name of the station.

Then click to see weather observations and forecasts.

To change the map : click on the green buttons with a black cross to zoom in, on the green button with a dash to zoom out, or on the green arrows for adjacent maps.


METAR-TAF: